Back to Top

Language: 

My Weather Underground Personal Weather Station Historical Data with Graphs...

Delerius Weather Station Historical Data
Daily Summary for October 20, 2017 Units:  English    Metric   Both
« Previous Day
Next Day »
Daily Weekly Monthly Yearly Custom
  High: Low: Average:
Temperature: 60.1 °F 48.7 °F 53.9 °F
Dew Point: 56.1 °F 45.8 °F 50.9 °F
Humidity: 98 % 79 % 90 %
Wind Speed: 13.0 mph 0.0 mph 5.4 mph
Wind Gust: 26.0 mph - -
Wind:- - SW
Pressure: 29.68 in 29.36 in -
Precipitation: 0.04 in    
Historical Graphs
 
 
Tabular Data for October 20, 2017
Time Temperature Dew Point Pressure Wind Wind Speed Wind Gust Humidity Rainfall Rate (Hourly) solar Conditions
00:04 55.8 °F 54.3 °F 29.38 in ESE 7.0 mph 11.0 mph 95 % 0.00 in 0 W/m2
00:09 55.8 °F 54.3 °F 29.38 in ESE 7.0 mph 12.0 mph 95 % 0.00 in 0 W/m2
00:14 55.8 °F 54.3 °F 29.38 in ESE 7.0 mph 13.0 mph 95 % 0.00 in 0 W/m2
00:19 55.9 °F 54.5 °F 29.38 in ESE 7.0 mph 13.0 mph 95 % 0.00 in 0 W/m2
00:24 55.9 °F 54.5 °F 29.38 in ESE 7.0 mph 11.0 mph 95 % 0.00 in 0 W/m2
00:29 55.9 °F 54.5 °F 29.38 in ESE 7.0 mph 13.0 mph 95 % 0.00 in 0 W/m2
00:34 55.9 °F 54.5 °F 29.38 in SE 7.0 mph 13.0 mph 95 % 0.00 in 0 W/m2
00:39 55.9 °F 54.5 °F 29.38 in SE 7.0 mph 13.0 mph 95 % 0.00 in 0 W/m2
00:44 55.9 °F 54.5 °F 29.37 in SE 7.0 mph 13.0 mph 95 % 0.00 in 0 W/m2
00:49 55.9 °F 54.5 °F 29.37 in SE 9.0 mph 19.0 mph 95 % 0.00 in 0 W/m2
00:54 56.1 °F 54.7 °F 29.37 in SE 12.0 mph 19.0 mph 95 % 0.00 in 0 W/m2
00:59 56.1 °F 54.7 °F 29.37 in SE 12.0 mph 18.0 mph 95 % 0.00 in 0 W/m2
01:04 55.9 °F 54.5 °F 29.37 in SE 10.0 mph 18.0 mph 95 % 0.00 in 0 W/m2
01:09 55.9 °F 54.5 °F 29.37 in SE 9.0 mph 15.0 mph 95 % 0.00 in 0 W/m2
01:14 55.9 °F 54.5 °F 29.37 in SE 9.0 mph 16.0 mph 95 % 0.01 in 0 W/m2
01:19 55.9 °F 54.5 °F 29.37 in SE 10.0 mph 16.0 mph 95 % 0.01 in 0 W/m2
01:24 55.9 °F 54.5 °F 29.37 in SE 9.0 mph 14.0 mph 95 % 0.01 in 0 W/m2
01:29 55.9 °F 54.5 °F 29.37 in SE 8.0 mph 14.0 mph 95 % 0.01 in 0 W/m2
01:34 55.9 °F 54.5 °F 29.37 in SSE 7.0 mph 11.0 mph 95 % 0.01 in 0 W/m2
01:39 55.8 °F 54.3 °F 29.37 in SE 8.0 mph 14.0 mph 95 % 0.01 in 0 W/m2
01:44 55.8 °F 54.3 °F 29.37 in SSE 8.0 mph 14.0 mph 95 % 0.01 in 0 W/m2
01:49 55.8 °F 54.3 °F 29.37 in SSE 7.0 mph 13.0 mph 95 % 0.01 in 0 W/m2
01:54 55.8 °F 54.1 °F 29.37 in SSE 6.0 mph 11.0 mph 94 % 0.01 in 0 W/m2
02:04 55.6 °F 53.9 °F 29.37 in SSE 6.0 mph 11.0 mph 94 % 0.01 in 0 W/m2
02:09 55.6 °F 53.9 °F 29.37 in SSE 6.0 mph 9.0 mph 94 % 0.01 in 0 W/m2
02:19 55.4 °F 53.7 °F 29.36 in SSE 6.0 mph 11.0 mph 94 % 0.00 in 0 W/m2
02:24 55.2 °F 53.5 °F 29.36 in SSE 5.0 mph 11.0 mph 94 % 0.00 in 0 W/m2
02:29 55.2 °F 53.5 °F 29.36 in South 5.0 mph 11.0 mph 94 % 0.00 in 0 W/m2
02:34 55.0 °F 53.1 °F 29.36 in SSE 5.0 mph 9.0 mph 93 % 0.00 in 0 W/m2
02:39 54.9 °F 52.9 °F 29.36 in SSE 4.0 mph 8.0 mph 93 % 0.00 in 0 W/m2
02:44 54.7 °F 52.7 °F 29.37 in SSE 4.0 mph 7.0 mph 93 % 0.00 in 0 W/m2
02:49 54.5 °F 52.5 °F 29.37 in South 4.0 mph 8.0 mph 93 % 0.00 in 0 W/m2
02:50 54.5 °F 52.5 °F 29.37 in South 4.0 mph 8.0 mph 93 % 0.00 in 0 W/m2
02:55 54.3 °F 52.3 °F 29.36 in South 3.0 mph 7.0 mph 93 % 0.00 in 0 W/m2
03:00 54.1 °F 52.2 °F 29.37 in SSE 3.0 mph 6.0 mph 93 % 0.00 in 0 W/m2
03:05 54.1 °F 52.2 °F 29.36 in SE 2.0 mph 7.0 mph 93 % 0.00 in 0 W/m2
03:10 54.1 °F 52.2 °F 29.36 in SSE 3.0 mph 7.0 mph 93 % 0.00 in 0 W/m2
03:15 54.1 °F 52.2 °F 29.37 in SSE 3.0 mph 7.0 mph 93 % 0.00 in 0 W/m2
03:20 54.1 °F 52.2 °F 29.37 in SSW 1.0 mph 4.0 mph 93 % 0.00 in 0 W/m2
03:25 54.0 °F 52.3 °F 29.37 in SSW 1.0 mph 4.0 mph 94 % 0.00 in 0 W/m2
03:30 54.0 °F 52.3 °F 29.37 in Calm   2.0 mph 94 % 0.00 in 0 W/m2
03:36 54.0 °F 52.3 °F 29.37 in Calm   1.0 mph 94 % 0.00 in 0 W/m2
03:38 54.0 °F 52.3 °F 29.38 in Calm   2.0 mph 94 % 0.00 in 0 W/m2
03:43 54.0 °F 52.3 °F 29.38 in SSW 3.0 mph 13.0 mph 94 % 0.01 in 0 W/m2
03:48 53.8 °F 52.1 °F 29.38 in SSW 7.0 mph 13.0 mph 94 % 0.01 in 0 W/m2
03:53 53.6 °F 51.9 °F 29.38 in SSW 6.0 mph 11.0 mph 94 % 0.02 in 0 W/m2
03:58 53.4 °F 51.7 °F 29.38 in South 4.0 mph 9.0 mph 94 % 0.02 in 0 W/m2
04:03 53.4 °F 51.7 °F 29.38 in SSW 2.0 mph 7.0 mph 94 % 0.02 in 0 W/m2
04:08 53.2 °F 51.8 °F 29.38 in SW 1.0 mph 6.0 mph 95 % 0.02 in 0 W/m2
04:13 53.2 °F 51.8 °F 29.38 in Calm   5.0 mph 95 % 0.02 in 0 W/m2
04:18 53.2 °F 51.8 °F 29.38 in Calm   2.0 mph 95 % 0.02 in 0 W/m2
04:22 53.2 °F 51.8 °F 29.38 in Calm   2.0 mph 95 % 0.02 in 0 W/m2
04:25 53.1 °F 51.7 °F 29.38 in Calm   4.0 mph 95 % 0.02 in 0 W/m2
04:30 53.1 °F 51.7 °F 29.38 in West 1.0 mph 5.0 mph 95 % 0.02 in 0 W/m2
04:35 53.1 °F 51.7 °F 29.37 in West 1.0 mph 5.0 mph 95 % 0.02 in 0 W/m2
04:40 52.9 °F 51.5 °F 29.38 in Calm   4.0 mph 95 % 0.02 in 0 W/m2
04:45 52.9 °F 51.5 °F 29.38 in Calm     95 % 0.02 in 0 W/m2
04:50 52.9 °F 51.5 °F 29.38 in Calm   2.0 mph 95 % 0.02 in 0 W/m2
04:55 52.9 °F 51.5 °F 29.38 in Calm   2.0 mph 95 % 0.01 in 0 W/m2
05:00 52.7 °F 51.3 °F 29.38 in SW 1.0 mph 4.0 mph 95 % 0.00 in 0 W/m2
05:05 52.5 °F 51.1 °F 29.38 in SW 1.0 mph 4.0 mph 95 % 0.00 in 0 W/m2
05:10 52.3 °F 51.0 °F 29.38 in Calm   3.0 mph 95 % 0.00 in 0 W/m2
05:15 52.2 °F 50.8 °F 29.38 in Calm   3.0 mph 95 % 0.00 in 0 W/m2
05:20 52.0 °F 50.6 °F 29.39 in Calm     95 % 0.00 in 0 W/m2
05:25 52.0 °F 50.6 °F 29.39 in Calm     95 % 0.00 in 0 W/m2
05:35 51.6 °F 50.2 °F 29.39 in Calm     95 % 0.00 in 0 W/m2
05:40 51.4 °F 50.1 °F 29.39 in Calm     95 % 0.00 in 0 W/m2
05:45 51.3 °F 49.9 °F 29.39 in Calm     95 % 0.00 in 0 W/m2
05:50 51.1 °F 49.7 °F 29.40 in Calm     95 % 0.00 in 0 W/m2
05:55 51.1 °F 50.0 °F 29.40 in Calm     96 % 0.00 in 0 W/m2
06:00 51.1 °F 50.0 °F 29.40 in Calm     96 % 0.00 in 0 W/m2
06:05 51.1 °F 50.0 °F 29.40 in Calm     96 % 0.00 in 0 W/m2
06:10 51.1 °F 50.0 °F 29.41 in Calm     96 % 0.00 in 0 W/m2
06:12 51.1 °F 50.0 °F 29.41 in Calm     96 % 0.00 in 0 W/m2
06:17 50.9 °F 49.8 °F 29.41 in Calm     96 % 0.00 in 0 W/m2
06:22 50.7 °F 49.6 °F 29.41 in Calm     96 % 0.00 in 0 W/m2
06:27 50.5 °F 49.4 °F 29.41 in Calm     96 % 0.00 in 0 W/m2
06:32 50.4 °F 49.3 °F 29.42 in Calm     96 % 0.00 in 0 W/m2
06:37 50.2 °F 49.1 °F 29.42 in Calm     96 % 0.00 in 0 W/m2
06:42 50.0 °F 48.9 °F 29.42 in Calm     96 % 0.00 in 0 W/m2
06:47 49.8 °F 48.7 °F 29.42 in Calm     96 % 0.00 in 0 W/m2
06:52 49.8 °F 48.7 °F 29.42 in Calm     96 % 0.00 in 0 W/m2
06:53 49.6 °F 48.5 °F 29.42 in Calm     96 % 0.00 in 0 W/m2
06:58 49.5 °F 48.4 °F 29.43 in Calm   4.0 mph 96 % 0.00 in 0 W/m2
07:03 49.5 °F 48.4 °F 29.43 in West 1.0 mph 4.0 mph 96 % 0.00 in 0 W/m2
07:08 49.5 °F 48.4 °F 29.43 in West 1.0 mph 4.0 mph 96 % 0.00 in 0 W/m2
07:13 49.3 °F 48.2 °F 29.43 in Calm   4.0 mph 96 % 0.00 in 0 W/m2
07:18 49.1 °F 48.0 °F 29.44 in Calm   4.0 mph 96 % 0.00 in 0 W/m2
07:24 49.1 °F 48.0 °F 29.44 in WNW 1.0 mph 5.0 mph 96 % 0.00 in 0 W/m2
07:29 49.1 °F 48.0 °F 29.44 in WNW 3.0 mph 7.0 mph 96 % 0.00 in 0 W/m2
07:34 49.3 °F 48.2 °F 29.44 in WNW 3.0 mph 7.0 mph 96 % 0.00 in 0 W/m2
07:39 49.3 °F 48.2 °F 29.44 in WNW 1.0 mph 5.0 mph 96 % 0.00 in 0 W/m2
07:44 49.1 °F 48.0 °F 29.44 in Calm   4.0 mph 96 % 0.00 in 5 W/m2
07:49 48.9 °F 47.8 °F 29.44 in Calm   2.0 mph 96 % 0.00 in 7 W/m2
07:54 48.7 °F 47.7 °F 29.45 in WNW 1.0 mph 5.0 mph 96 % 0.00 in 14 W/m2
07:59 48.7 °F 47.7 °F 29.46 in WNW 2.0 mph 5.0 mph 96 % 0.00 in 28 W/m2
08:04 48.7 °F 47.7 °F 29.46 in WNW 2.0 mph 5.0 mph 96 % 0.00 in 62 W/m2
08:09 48.9 °F 48.1 °F 29.46 in WNW 1.0 mph 5.0 mph 97 % 0.00 in 104 W/m2
08:14 49.3 °F 48.5 °F 29.46 in Calm   2.0 mph 97 % 0.00 in 67 W/m2
08:19 49.6 °F 48.8 °F 29.47 in Calm   4.0 mph 97 % 0.00 in 46 W/m2
08:24 49.8 °F 49.0 °F 29.47 in Calm   4.0 mph 97 % 0.00 in 114 W/m2
08:29 50.2 °F 49.4 °F 29.47 in Calm   2.0 mph 97 % 0.00 in 100 W/m2
08:34 50.5 °F 49.7 °F 29.47 in Calm   2.0 mph 97 % 0.00 in 139 W/m2
08:35 50.7 °F 49.9 °F 29.47 in Calm   2.0 mph 97 % 0.00 in 144 W/m2
08:40 51.1 °F 50.3 °F 29.47 in Calm   1.0 mph 97 % 0.00 in 160 W/m2
08:45 51.6 °F 50.8 °F 29.47 in Calm     97 % 0.00 in 188 W/m2
08:50 52.5 °F 52.0 °F 29.48 in Calm     98 % 0.00 in 58 W/m2
08:55 52.9 °F 52.3 °F 29.48 in Calm   1.0 mph 98 % 0.00 in 174 W/m2
09:00 52.7 °F 51.9 °F 29.48 in Calm   1.0 mph 97 % 0.00 in 37 W/m2
09:05 52.3 °F 51.2 °F 29.49 in Calm     96 % 0.00 in 44 W/m2
09:10 52.2 °F 51.1 °F 29.49 in Calm     96 % 0.00 in 218 W/m2
09:15 52.2 °F 51.3 °F 29.49 in Calm   4.0 mph 97 % 0.00 in 229 W/m2
09:18 52.3 °F 51.5 °F 29.49 in WNW 1.0 mph 5.0 mph 97 % 0.00 in 230 W/m2
09:23 52.9 °F 52.1 °F 29.50 in West 2.0 mph 5.0 mph 97 % 0.00 in 295 W/m2
09:28 53.2 °F 52.4 °F 29.50 in West 3.0 mph 10.0 mph 97 % 0.00 in 116 W/m2
09:33 53.6 °F 52.8 °F 29.50 in West 4.0 mph 10.0 mph 97 % 0.00 in 102 W/m2
09:38 53.8 °F 52.9 °F 29.50 in West 5.0 mph 13.0 mph 97 % 0.00 in 137 W/m2
09:43 54.0 °F 53.1 °F 29.51 in West 6.0 mph 13.0 mph 97 % 0.00 in 113 W/m2
09:48 54.0 °F 53.1 °F 29.51 in West 6.0 mph 11.0 mph 97 % 0.00 in 116 W/m2
09:53 54.1 °F 53.0 °F 29.51 in West 7.0 mph 11.0 mph 96 % 0.00 in 105 W/m2
09:58 54.1 °F 53.0 °F 29.51 in West 7.0 mph 12.0 mph 96 % 0.00 in 97 W/m2
10:03 54.3 °F 53.2 °F 29.51 in West 7.0 mph 12.0 mph 96 % 0.00 in 90 W/m2
10:08 54.3 °F 53.2 °F 29.52 in West 6.0 mph 10.0 mph 96 % 0.00 in 97 W/m2
10:13 54.3 °F 53.2 °F 29.52 in West 6.0 mph 10.0 mph 96 % 0.00 in 97 W/m2
10:14 54.3 °F 53.2 °F 29.52 in West 6.0 mph 9.0 mph 96 % 0.00 in 100 W/m2
10:19 54.3 °F 53.2 °F 29.52 in West 5.0 mph 8.0 mph 96 % 0.00 in 121 W/m2
10:24 54.7 °F 53.6 °F 29.52 in West 5.0 mph 10.0 mph 96 % 0.00 in 127 W/m2
10:29 54.9 °F 53.7 °F 29.52 in West 5.0 mph 10.0 mph 96 % 0.00 in 113 W/m2
10:34 54.9 °F 53.5 °F 29.52 in West 4.0 mph 8.0 mph 95 % 0.00 in 139 W/m2
10:39 55.0 °F 53.6 °F 29.53 in West 2.0 mph 8.0 mph 95 % 0.00 in 134 W/m2
10:44 55.2 °F 53.8 °F 29.53 in West 2.0 mph 7.0 mph 95 % 0.00 in 72 W/m2
10:49 55.6 °F 54.2 °F 29.53 in WNW 5.0 mph 14.0 mph 95 % 0.00 in 53 W/m2
10:54 55.8 °F 54.3 °F 29.54 in WNW 8.0 mph 16.0 mph 95 % 0.00 in 62 W/m2
10:59 55.9 °F 54.2 °F 29.54 in WNW 8.0 mph 16.0 mph 94 % 0.00 in 79 W/m2
11:04 56.1 °F 54.4 °F 29.54 in West 8.0 mph 19.0 mph 94 % 0.00 in 127 W/m2
11:09 56.3 °F 54.6 °F 29.54 in West 7.0 mph 19.0 mph 94 % 0.00 in 195 W/m2
11:14 56.8 °F 55.1 °F 29.54 in West 6.0 mph 12.0 mph 94 % 0.00 in 301 W/m2
11:20 57.4 °F 55.7 °F 29.54 in West 8.0 mph 13.0 mph 94 % 0.00 in 185 W/m2
11:25 57.7 °F 55.7 °F 29.55 in West 8.0 mph 18.0 mph 93 % 0.00 in 257 W/m2
11:30 57.9 °F 55.6 °F 29.55 in West 10.0 mph 18.0 mph 92 % 0.00 in 417 W/m2
11:35 58.5 °F 55.8 °F 29.55 in West 11.0 mph 20.0 mph 91 % 0.00 in 229 W/m2
11:40 59.0 °F 56.1 °F 29.55 in West 11.0 mph 20.0 mph 90 % 0.00 in 478 W/m2
11:45 59.4 °F 55.8 °F 29.55 in West 12.0 mph 21.0 mph 88 % 0.00 in 476 W/m2
11:50 59.7 °F 55.8 °F 29.56 in West 12.0 mph 21.0 mph 87 % 0.00 in 221 W/m2
11:55 60.1 °F 55.9 °F 29.56 in West 12.0 mph 26.0 mph 86 % 0.00 in 258 W/m2
12:00 60.1 °F 55.9 °F 29.57 in West 13.0 mph 26.0 mph 86 % 0.00 in 211 W/m2
12:05 59.9 °F 55.7 °F 29.56 in WNW 12.0 mph 22.0 mph 86 % 0.00 in 221 W/m2
12:10 59.9 °F 56.0 °F 29.57 in West 9.0 mph 16.0 mph 87 % 0.00 in 246 W/m2
12:15 59.9 °F 56.0 °F 29.57 in West 8.0 mph 13.0 mph 87 % 0.00 in 105 W/m2
12:20 59.7 °F 55.8 °F 29.58 in West 7.0 mph 13.0 mph 87 % 0.00 in 86 W/m2
12:25 59.5 °F 55.7 °F 29.58 in West 7.0 mph 16.0 mph 87 % 0.00 in 269 W/m2
12:30 59.5 °F 55.7 °F 29.58 in WNW 10.0 mph 22.0 mph 87 % 0.00 in 589 W/m2
12:35 59.4 °F 55.8 °F 29.59 in WNW 11.0 mph 22.0 mph 88 % 0.00 in 148 W/m2
12:40 59.0 °F 55.4 °F 29.58 in WNW 10.0 mph 21.0 mph 88 % 0.00 in 153 W/m2
12:45 58.6 °F 55.1 °F 29.59 in WNW 10.0 mph 19.0 mph 88 % 0.00 in 114 W/m2
12:50 58.5 °F 54.6 °F 29.59 in WNW 11.0 mph 21.0 mph 87 % 0.00 in 148 W/m2
12:55 58.6 °F 55.1 °F 29.59 in West 10.0 mph 21.0 mph 88 % 0.00 in 204 W/m2
13:00 58.8 °F 55.0 °F 29.59 in West 10.0 mph 19.0 mph 87 % 0.00 in 339 W/m2
13:05 59.4 °F 55.5 °F 29.59 in West 10.0 mph 19.0 mph 87 % 0.00 in 308 W/m2
13:10 59.4 °F 54.8 °F 29.60 in West 10.0 mph 22.0 mph 85 % 0.00 in 179 W/m2
13:15 59.2 °F 55.0 °F 29.60 in West 11.0 mph 22.0 mph 86 % 0.00 in 141 W/m2
13:20 59.0 °F 54.8 °F 29.60 in West 12.0 mph 22.0 mph 86 % 0.00 in 336 W/m2
13:25 58.8 °F 54.6 °F 29.60 in WNW 12.0 mph 22.0 mph 86 % 0.00 in 151 W/m2
13:27 58.6 °F 54.5 °F 29.60 in WNW 12.0 mph 21.0 mph 86 % 0.00 in 239 W/m2
13:33 58.6 °F 54.8 °F 29.60 in WNW 12.0 mph 22.0 mph 87 % 0.00 in 540 W/m2
13:38 58.8 °F 54.6 °F 29.60 in WNW 11.0 mph 22.0 mph 86 % 0.00 in 158 W/m2
13:43 58.8 °F 54.6 °F 29.60 in WNW 11.0 mph 20.0 mph 86 % 0.00 in 269 W/m2
13:48 59.2 °F 54.7 °F 29.60 in WNW 11.0 mph 20.0 mph 85 % 0.00 in 585 W/m2
13:53 59.7 °F 54.9 °F 29.60 in WNW 11.0 mph 19.0 mph 84 % 0.00 in 485 W/m2
13:58 59.7 °F 54.5 °F 29.61 in WNW 10.0 mph 20.0 mph 83 % 0.00 in 95 W/m2
14:03 59.4 °F 53.9 °F 29.61 in WNW 10.0 mph 20.0 mph 82 % 0.00 in 109 W/m2
14:08 58.8 °F 53.7 °F 29.62 in WNW 10.0 mph 19.0 mph 83 % 0.00 in 278 W/m2
14:13 58.8 °F 54.0 °F 29.62 in West 9.0 mph 19.0 mph 84 % 0.00 in 127 W/m2
14:18 58.6 °F 53.8 °F 29.62 in West 8.0 mph 14.0 mph 84 % 0.00 in 70 W/m2
14:20 58.5 °F 53.6 °F 29.62 in West 8.0 mph 14.0 mph 84 % 0.00 in 97 W/m2
14:25 58.1 °F 53.0 °F 29.62 in West 11.0 mph 20.0 mph 83 % 0.00 in 84 W/m2
14:30 57.7 °F 52.9 °F 29.62 in West 12.0 mph 20.0 mph 84 % 0.00 in 63 W/m2
14:35 57.4 °F 52.6 °F 29.63 in WNW 11.0 mph 19.0 mph 84 % 0.00 in 42 W/m2
14:40 57.2 °F 52.7 °F 29.63 in West 9.0 mph 15.0 mph 85 % 0.00 in 49 W/m2
14:45 57.0 °F 52.9 °F 29.63 in West 9.0 mph 14.0 mph 86 % 0.00 in 169 W/m2
14:50 57.0 °F 52.9 °F 29.63 in West 9.0 mph 16.0 mph 86 % 0.00 in 70 W/m2
14:55 56.8 °F 52.7 °F 29.63 in West 11.0 mph 25.0 mph 86 % 0.00 in 53 W/m2
15:00 56.5 °F 52.0 °F 29.63 in West 13.0 mph 25.0 mph 85 % 0.00 in 74 W/m2
15:05 56.1 °F 52.0 °F 29.64 in West 12.0 mph 23.0 mph 86 % 0.00 in 76 W/m2
15:10 55.9 °F 51.8 °F 29.64 in West 11.0 mph 24.0 mph 86 % 0.00 in 77 W/m2
15:15 55.8 °F 51.6 °F 29.64 in West 12.0 mph 24.0 mph 86 % 0.00 in 130 W/m2
15:21 55.6 °F 51.5 °F 29.64 in West 12.0 mph 22.0 mph 86 % 0.00 in 88 W/m2
15:26 55.6 °F 51.5 °F 29.65 in West 11.0 mph 20.0 mph 86 % 0.00 in 155 W/m2
15:31 55.6 °F 51.1 °F 29.65 in West 10.0 mph 18.0 mph 85 % 0.00 in 88 W/m2
15:36 55.6 °F 51.1 °F 29.65 in West 10.0 mph 18.0 mph 85 % 0.00 in 79 W/m2
15:41 55.6 °F 51.1 °F 29.65 in West 10.0 mph 18.0 mph 85 % 0.00 in 95 W/m2
15:46 55.6 °F 50.8 °F 29.65 in West 11.0 mph 18.0 mph 84 % 0.00 in 104 W/m2
15:51 55.6 °F 51.1 °F 29.65 in West 10.0 mph 18.0 mph 85 % 0.00 in 88 W/m2
15:56 55.8 °F 51.3 °F 29.65 in West 9.0 mph 16.0 mph 85 % 0.00 in 160 W/m2
16:01 56.1 °F 51.4 °F 29.65 in West 9.0 mph 16.0 mph 84 % 0.00 in 250 W/m2
16:06 56.5 °F 51.4 °F 29.65 in West 8.0 mph 14.0 mph 83 % 0.00 in 134 W/m2
16:11 56.5 °F 51.1 °F 29.65 in West 7.0 mph 12.0 mph 82 % 0.00 in 183 W/m2
16:16 56.5 °F 51.1 °F 29.65 in West 7.0 mph 15.0 mph 82 % 0.00 in 148 W/m2
16:21 56.1 °F 50.7 °F 29.65 in West 7.0 mph 15.0 mph 82 % 0.00 in 76 W/m2
16:26 55.9 °F 50.5 °F 29.65 in West 7.0 mph 14.0 mph 82 % 0.00 in 53 W/m2
16:31 55.8 °F 50.3 °F 29.65 in West 6.0 mph 14.0 mph 82 % 0.00 in 42 W/m2
16:32 55.8 °F 50.3 °F 29.65 in WSW 6.0 mph 11.0 mph 82 % 0.00 in 35 W/m2
16:37 55.6 °F 50.2 °F 29.65 in WSW 5.0 mph 9.0 mph 82 % 0.00 in 30 W/m2
16:42 55.2 °F 50.1 °F 29.65 in WSW 6.0 mph 12.0 mph 83 % 0.00 in 26 W/m2
16:47 55.2 °F 50.1 °F 29.65 in WSW 6.0 mph 12.0 mph 83 % 0.00 in 32 W/m2
16:53 55.0 °F 50.0 °F 29.65 in WSW 4.0 mph 9.0 mph 83 % 0.00 in 23 W/m2
16:58 55.0 °F 50.3 °F 29.66 in WSW 5.0 mph 9.0 mph 84 % 0.00 in 28 W/m2
17:03 55.0 °F 50.3 °F 29.66 in WSW 4.0 mph 9.0 mph 84 % 0.00 in 33 W/m2
17:08 55.0 °F 50.3 °F 29.66 in WSW 4.0 mph 9.0 mph 84 % 0.00 in 35 W/m2
17:18 54.9 °F 50.1 °F 29.66 in WSW 5.0 mph 9.0 mph 84 % 0.00 in 23 W/m2
17:23 54.9 °F 50.4 °F 29.66 in WSW 4.0 mph 9.0 mph 85 % 0.00 in 11 W/m2
17:28 54.9 °F 50.1 °F 29.66 in SW 5.0 mph 9.0 mph 84 % 0.00 in 5 W/m2
17:34 54.9 °F 50.4 °F 29.66 in SW 6.0 mph 14.0 mph 85 % 0.00 in 0 W/m2
17:39 54.7 °F 50.3 °F 29.66 in SW 6.0 mph 14.0 mph 85 % 0.00 in 0 W/m2
17:44 54.5 °F 49.8 °F 29.66 in SW 8.0 mph 19.0 mph 84 % 0.00 in 0 W/m2
17:49 54.3 °F 49.3 °F 29.66 in WSW 11.0 mph 23.0 mph 83 % 0.00 in 0 W/m2
17:54 54.1 °F 49.1 °F 29.67 in WSW 12.0 mph 23.0 mph 83 % 0.00 in 0 W/m2
17:59 54.0 °F 48.9 °F 29.67 in WSW 11.0 mph 19.0 mph 83 % 0.00 in 0 W/m2
18:04 53.8 °F 48.7 °F 29.67 in WSW 8.0 mph 19.0 mph 83 % 0.00 in 0 W/m2
18:09 53.8 °F 48.7 °F 29.67 in WSW 8.0 mph 16.0 mph 83 % 0.00 in 0 W/m2
18:14 53.4 °F 48.1 °F 29.67 in SW 9.0 mph 18.0 mph 82 % 0.00 in 0 W/m2
18:19 53.4 °F 47.7 °F 29.67 in SW 8.0 mph 18.0 mph 81 % 0.00 in 0 W/m2
18:24 53.2 °F 47.6 °F 29.68 in SW 8.0 mph 14.0 mph 81 % 0.00 in 0 W/m2
18:29 53.1 °F 47.1 °F 29.68 in SW 6.0 mph 13.0 mph 80 % 0.00 in 0 W/m2
18:34 53.1 °F 46.7 °F 29.67 in SW 5.0 mph 11.0 mph 79 % 0.00 in 0 W/m2
18:39 53.1 °F 46.7 °F 29.68 in SW 4.0 mph 10.0 mph 79 % 0.00 in 0 W/m2
18:44 52.9 °F 46.5 °F 29.67 in SW 3.0 mph 7.0 mph 79 % 0.00 in 0 W/m2
18:49 52.9 °F 46.5 °F 29.67 in SSW 2.0 mph 8.0 mph 79 % 0.00 in 0 W/m2
18:54 52.9 °F 46.5 °F 29.67 in SSW 3.0 mph 8.0 mph 79 % 0.00 in 0 W/m2
18:59 52.7 °F 46.4 °F 29.67 in SSW 5.0 mph 13.0 mph 79 % 0.00 in 0 W/m2
19:04 52.5 °F 46.5 °F 29.67 in South 5.0 mph 13.0 mph 80 % 0.00 in 0 W/m2
19:09 52.5 °F 46.5 °F 29.67 in South 4.0 mph 10.0 mph 80 % 0.00 in 0 W/m2
19:15 52.3 °F 46.7 °F 29.67 in South 3.0 mph 10.0 mph 81 % 0.00 in 0 W/m2
19:20 52.2 °F 46.5 °F 29.67 in South 3.0 mph 7.0 mph 81 % 0.00 in 0 W/m2
19:25 52.2 °F 46.5 °F 29.66 in SSW 3.0 mph 7.0 mph 81 % 0.00 in 0 W/m2
19:26 52.0 °F 46.3 °F 29.66 in SSW 3.0 mph 7.0 mph 81 % 0.00 in 0 W/m2
19:32 52.0 °F 46.7 °F 29.66 in SW 4.0 mph 9.0 mph 82 % 0.00 in 0 W/m2
19:37 51.8 °F 46.5 °F 29.66 in SW 6.0 mph 9.0 mph 82 % 0.00 in 0 W/m2
19:42 51.6 °F 46.3 °F 29.66 in SSW 6.0 mph 11.0 mph 82 % 0.00 in 0 W/m2
19:47 51.6 °F 46.3 °F 29.66 in SSW 6.0 mph 14.0 mph 82 % 0.00 in 0 W/m2
19:52 51.6 °F 46.3 °F 29.66 in SSW 7.0 mph 14.0 mph 82 % 0.00 in 0 W/m2
19:57 51.6 °F 46.3 °F 29.65 in SW 4.0 mph 12.0 mph 82 % 0.00 in 0 W/m2
20:02 51.6 °F 46.0 °F 29.65 in SSW 2.0 mph 8.0 mph 81 % 0.00 in 0 W/m2
20:07 51.8 °F 46.2 °F 29.66 in South 3.0 mph 8.0 mph 81 % 0.00 in 0 W/m2
20:12 51.8 °F 46.2 °F 29.65 in SSE 4.0 mph 8.0 mph 81 % 0.00 in 0 W/m2
20:17 51.8 °F 46.2 °F 29.65 in SSE 4.0 mph 9.0 mph 81 % 0.00 in 0 W/m2
20:22 51.6 °F 46.0 °F 29.65 in SSE 5.0 mph 9.0 mph 81 % 0.00 in 0 W/m2
20:27 51.6 °F 46.3 °F 29.65 in SSE 4.0 mph 9.0 mph 82 % 0.00 in 0 W/m2
20:32 51.6 °F 46.3 °F 29.64 in SE 4.0 mph 9.0 mph 82 % 0.00 in 0 W/m2
20:37 51.4 °F 45.8 °F 29.64 in SE 4.0 mph 9.0 mph 81 % 0.00 in 0 W/m2
20:42 51.4 °F 45.8 °F 29.64 in SE 4.0 mph 10.0 mph 81 % 0.00 in 0 W/m2
20:43 51.4 °F 45.8 °F 29.64 in SE 4.0 mph 10.0 mph 81 % 0.00 in 0 W/m2
20:48 51.4 °F 46.1 °F 29.63 in SE 5.0 mph 10.0 mph 82 % 0.00 in 0 W/m2
20:53 51.3 °F 46.0 °F 29.64 in SE 4.0 mph 9.0 mph 82 % 0.00 in 0 W/m2
20:58 51.3 °F 46.0 °F 29.63 in SE 4.0 mph 9.0 mph 82 % 0.00 in 0 W/m2
21:03 51.3 °F 46.3 °F 29.63 in SE 4.0 mph 8.0 mph 83 % 0.00 in 0 W/m2
21:08 51.3 °F 46.3 °F 29.63 in SE 4.0 mph 7.0 mph 83 % 0.00 in 0 W/m2
21:13 51.1 °F 46.1 °F 29.62 in SE 4.0 mph 8.0 mph 83 % 0.00 in 0 W/m2
21:18 51.1 °F 46.4 °F 29.62 in SE 4.0 mph 8.0 mph 84 % 0.00 in 0 W/m2
21:23 51.1 °F 46.4 °F 29.62 in SE 2.0 mph 6.0 mph 84 % 0.00 in 0 W/m2
21:28 51.1 °F 46.4 °F 29.62 in SSE 4.0 mph 11.0 mph 84 % 0.00 in 0 W/m2
21:33 51.1 °F 46.4 °F 29.61 in SSE 5.0 mph 11.0 mph 84 % 0.00 in 0 W/m2
21:38 51.1 °F 46.4 °F 29.61 in SSE 5.0 mph 9.0 mph 84 % 0.00 in 0 W/m2
21:43 51.1 °F 46.4 °F 29.60 in SE 6.0 mph 11.0 mph 84 % 0.00 in 0 W/m2
21:48 51.1 °F 46.4 °F 29.61 in SE 6.0 mph 11.0 mph 84 % 0.00 in 0 W/m2
21:53 50.9 °F 46.2 °F 29.60 in SE 5.0 mph 8.0 mph 84 % 0.00 in 0 W/m2
21:58 50.9 °F 46.2 °F 29.60 in SE 5.0 mph 10.0 mph 84 % 0.00 in 0 W/m2
22:03 50.9 °F 46.6 °F 29.61 in SE 5.0 mph 10.0 mph 85 % 0.00 in 0 W/m2
22:08 51.1 °F 46.7 °F 29.60 in SE 6.0 mph 12.0 mph 85 % 0.00 in 0 W/m2
22:14 50.9 °F 46.9 °F 29.60 in SSE 8.0 mph 15.0 mph 86 % 0.01 in 0 W/m2
22:19 50.7 °F 46.7 °F 29.60 in SSE 8.0 mph 15.0 mph 86 % 0.01 in 0 W/m2
22:24 50.5 °F 46.8 °F 29.60 in SE 6.0 mph 11.0 mph 87 % 0.01 in 0 W/m2
22:29 50.5 °F 46.8 °F 29.59 in SE 4.0 mph 9.0 mph 87 % 0.01 in 0 W/m2
22:34 50.4 °F 46.9 °F 29.59 in SSE 3.0 mph 9.0 mph 88 % 0.01 in 0 W/m2
22:39 50.4 °F 46.9 °F 29.58 in SSE 4.0 mph 12.0 mph 88 % 0.01 in 0 W/m2
22:44 50.4 °F 46.9 °F 29.58 in SSE 6.0 mph 12.0 mph 88 % 0.01 in 0 W/m2
22:49 50.5 °F 47.1 °F 29.58 in SSE 6.0 mph 12.0 mph 88 % 0.01 in 0 W/m2
22:54 50.5 °F 47.1 °F 29.57 in SSE 7.0 mph 12.0 mph 88 % 0.01 in 0 W/m2
22:59 50.5 °F 47.4 °F 29.57 in SSE 7.0 mph 12.0 mph 89 % 0.01 in 0 W/m2
23:04 50.5 °F 47.4 °F 29.57 in SSE 7.0 mph 15.0 mph 89 % 0.01 in 0 W/m2
23:09 50.5 °F 47.4 °F 29.57 in SSE 7.0 mph 15.0 mph 89 % 0.00 in 0 W/m2
23:14 50.5 °F 47.4 °F 29.57 in SSE 7.0 mph 13.0 mph 89 % 0.00 in 0 W/m2
23:19 50.5 °F 47.4 °F 29.56 in SSE 6.0 mph 13.0 mph 89 % 0.00 in 0 W/m2
23:24 50.5 °F 47.4 °F 29.56 in SSE 5.0 mph 10.0 mph 89 % 0.00 in 0 W/m2
23:29 50.5 °F 47.7 °F 29.55 in SE 6.0 mph 10.0 mph 90 % 0.00 in 0 W/m2
23:34 50.7 °F 47.9 °F 29.55 in SE 8.0 mph 13.0 mph 90 % 0.00 in 0 W/m2
23:39 50.7 °F 47.9 °F 29.55 in SSE 8.0 mph 13.0 mph 90 % 0.00 in 0 W/m2
23:44 50.7 °F 48.2 °F 29.55 in SSE 8.0 mph 15.0 mph 91 % 0.00 in 0 W/m2
23:49 50.9 °F 48.4 °F 29.55 in SSE 8.0 mph 15.0 mph 91 % 0.00 in 0 W/m2
23:54 50.9 °F 48.4 °F 29.54 in SSE 6.0 mph 12.0 mph 91 % 0.00 in 0 W/m2
23:59 50.9 °F 48.7 °F 29.54 in SSE 5.0 mph 11.0 mph 92 % 0.00 in 0 W/m2
Delerius-Weather
Compliments of Weather Underground - 2.25 mb

Data updates at regular intervals.